createdAt,value
2019-03-24T00:01:41.178Z,88151.73
2019-03-24T00:04:01.653Z,88148.59
2019-03-24T00:06:28.385Z,88148.64
2019-03-24T00:08:55.100Z,88151.48
2019-03-24T00:11:21.873Z,88143.13
2019-03-24T00:13:48.588Z,88150.02
2019-03-24T00:16:15.469Z,88153.77
2019-03-24T00:18:45.965Z,88154.17
2019-03-24T00:21:12.691Z,88157.41
2019-03-24T00:23:39.660Z,88155.73
2019-03-24T00:26:06.397Z,88160.66
2019-03-24T00:28:33.223Z,88156.83
2019-03-24T00:30:59.999Z,88154.17
2019-03-24T00:33:26.727Z,88153.72
2019-03-24T00:35:53.569Z,88154.13
2019-03-24T00:38:20.362Z,88154.81
2019-03-24T00:40:47.067Z,88150.91
2019-03-24T00:43:13.930Z,88152.20
2019-03-24T00:45:40.638Z,88152.98
2019-03-24T00:48:07.360Z,88146.30
2019-03-24T00:50:34.111Z,88142.80
2019-03-24T00:53:00.844Z,88154.44
2019-03-24T00:55:27.619Z,88143.25
2019-03-24T00:57:54.370Z,88140.72
2019-03-24T01:00:29.372Z,88137.12
2019-03-24T01:02:56.163Z,88132.90
2019-03-24T01:05:22.984Z,88133.83
2019-03-24T01:07:49.856Z,88127.42
2019-03-24T01:10:16.724Z,88131.25
2019-03-24T01:12:43.446Z,88127.34
2019-03-24T01:15:10.193Z,88128.89
2019-03-24T01:17:37.270Z,88121.44
2019-03-24T01:20:05.867Z,88123.89
2019-03-24T01:22:32.722Z,88118.20
2019-03-24T01:24:59.446Z,88118.30
2019-03-24T01:27:26.166Z,88119.05
2019-03-24T01:29:53.028Z,88113.30
2019-03-24T01:32:19.769Z,88114.61
2019-03-24T01:34:46.469Z,88113.76
2019-03-24T01:37:13.315Z,88102.72
2019-03-24T01:39:40.048Z,88105.69
2019-03-24T01:42:06.755Z,88096.04
2019-03-24T01:44:33.654Z,88090.83
2019-03-24T01:47:00.358Z,88098.60
2019-03-24T01:49:27.101Z,88094.11
2019-03-24T01:51:53.945Z,88091.88
2019-03-24T01:54:20.673Z,88091.22
2019-03-24T01:56:47.405Z,88091.59
2019-03-24T01:59:14.205Z,88087.31
2019-03-24T02:01:40.942Z,88089.86
2019-03-24T02:04:07.688Z,88089.48
2019-03-24T02:06:34.557Z,88088.13
2019-03-24T02:09:01.261Z,88089.66
2019-03-24T02:11:28.007Z,88088.89
2019-03-24T02:13:54.783Z,88084.00
2019-03-24T02:16:21.527Z,88087.98
2019-03-24T02:18:48.378Z,88087.28
2019-03-24T02:21:15.146Z,88080.64
2019-03-24T02:23:41.884Z,88081.41
2019-03-24T02:26:08.746Z,88076.28
2019-03-24T02:28:35.494Z,88082.17
2019-03-24T02:31:02.237Z,88079.36
2019-03-24T02:33:29.100Z,88078.34
2019-03-24T02:35:55.798Z,88083.17
2019-03-24T02:38:22.521Z,88085.56
2019-03-24T02:40:49.391Z,88084.09
2019-03-24T02:43:16.138Z,88087.25
2019-03-24T02:45:42.859Z,88087.85
2019-03-24T02:48:09.616Z,88085.25
2019-03-24T02:50:36.341Z,88079.52
2019-03-24T02:53:03.238Z,88079.66
2019-03-24T02:55:29.959Z,88074.85
2019-03-24T02:57:56.697Z,88077.53
2019-03-24T03:00:23.562Z,88080.58
2019-03-24T03:02:50.301Z,88082.80
2019-03-24T03:05:17.054Z,88077.91
2019-03-24T03:07:43.907Z,88077.14
2019-03-24T03:10:11.241Z,88081.28
2019-03-24T03:12:37.991Z,88077.14
2019-03-24T03:15:09.575Z,88073.37
2019-03-24T03:17:36.295Z,88074.47
2019-03-24T03:20:08.237Z,88079.11
2019-03-24T03:22:35.148Z,88077.21
2019-03-24T03:25:04.874Z,88073.31
2019-03-24T03:27:31.603Z,88076.68
2019-03-24T03:29:58.422Z,88075.77
2019-03-24T03:32:25.135Z,88065.73
2019-03-24T03:34:52.026Z,88070.39
2019-03-24T03:37:18.766Z,88066.80
2019-03-24T03:39:45.496Z,88067.08
2019-03-24T03:42:12.254Z,88062.04
2019-03-24T03:44:39.004Z,88065.70
2019-03-24T03:47:05.846Z,88066.09
2019-03-24T03:49:32.573Z,88067.63
2019-03-24T03:51:59.303Z,88066.27
2019-03-24T03:54:26.063Z,88065.36
2019-03-24T03:56:52.805Z,88062.59
2019-03-24T03:59:19.696Z,88065.90
2019-03-24T04:01:46.400Z,88057.64
2019-03-24T04:04:13.137Z,88064.28
2019-03-24T04:06:39.909Z,88063.20
2019-03-24T04:09:06.740Z,88056.77
2019-03-24T04:11:33.452Z,88058.25
2019-03-24T04:14:00.216Z,88054.03
2019-03-24T04:16:26.958Z,88054.41
2019-03-24T04:18:53.743Z,88058.07
2019-03-24T04:21:20.475Z,88058.53
2019-03-24T04:23:47.256Z,88055.93
2019-03-24T04:26:14.015Z,88059.38
2019-03-24T04:28:40.760Z,88056.39
2019-03-24T04:31:07.629Z,88060.05
2019-03-24T04:33:34.414Z,88062.95
2019-03-24T04:36:01.120Z,88056.00
2019-03-24T04:38:27.928Z,88063.87
2019-03-24T04:40:54.652Z,88062.42
2019-03-24T04:43:21.415Z,88067.38
2019-03-24T04:45:48.279Z,88069.83
2019-03-24T04:48:15.004Z,88071.59
2019-03-24T04:50:41.839Z,88066.46
2019-03-24T04:53:08.566Z,88066.00
2019-03-24T04:55:35.306Z,88065.61
2019-03-24T04:58:02.060Z,88062.77
2019-03-24T05:00:37.281Z,88062.24
2019-03-24T05:03:04.467Z,88065.89
2019-03-24T05:05:31.395Z,88072.95
2019-03-24T05:07:58.931Z,88073.55
2019-03-24T05:10:27.218Z,88068.88
2019-03-24T05:12:53.951Z,88062.16
2019-03-24T05:15:20.688Z,88054.89
2019-03-24T05:17:47.809Z,88060.77
2019-03-24T05:20:14.567Z,88053.59
2019-03-24T05:22:41.345Z,88058.55
2019-03-24T05:25:11.017Z,88054.89
2019-03-24T05:27:37.759Z,88052.05
2019-03-24T05:30:05.817Z,88057.49
2019-03-24T05:32:52.286Z,88051.59
2019-03-24T05:35:19.064Z,88058.40
2019-03-24T05:37:46.194Z,88059.52
2019-03-24T05:40:13.039Z,88061.38
2019-03-24T05:42:39.842Z,88060.73
2019-03-24T05:45:07.278Z,88058.45
2019-03-24T05:47:37.279Z,88058.91
2019-03-24T05:50:07.683Z,88062.19
2019-03-24T05:52:34.427Z,88061.91
2019-03-24T05:55:01.169Z,88062.43
2019-03-24T05:57:29.800Z,88063.97
2019-03-24T05:59:56.492Z,88061.91
2019-03-24T06:02:23.297Z,88065.55
2019-03-24T06:04:50.024Z,88065.27
2019-03-24T06:07:16.747Z,88065.05
2019-03-24T06:09:43.542Z,88065.29
2019-03-24T06:12:10.265Z,88064.25
2019-03-24T06:14:36.996Z,88068.22
2019-03-24T06:17:03.781Z,88065.09
2019-03-24T06:19:30.510Z,88066.78
2019-03-24T06:21:57.247Z,88060.53
2019-03-24T06:24:24.781Z,88056.53
2019-03-24T06:26:51.551Z,88050.13
2019-03-24T06:29:18.344Z,88049.81
2019-03-24T06:31:45.055Z,88049.59
2019-03-24T06:34:11.966Z,88049.51
2019-03-24T06:36:38.754Z,88043.77
2019-03-24T06:39:06.899Z,88036.02
2019-03-24T06:41:33.610Z,88039.61
2019-03-24T06:44:00.385Z,88032.31
2019-03-24T06:46:27.118Z,88031.55
2019-03-24T06:48:54.179Z,88025.39
2019-03-24T06:51:21.008Z,88025.27
2019-03-24T06:53:47.740Z,88015.66
2019-03-24T06:56:14.467Z,88017.74
2019-03-24T06:58:44.125Z,88010.03
2019-03-24T07:01:10.863Z,88009.13
2019-03-24T07:03:37.678Z,88011.38
2019-03-24T07:06:04.559Z,88015.36
2019-03-24T07:08:32.650Z,88006.73
2019-03-24T07:10:59.395Z,88006.34
2019-03-24T07:13:26.162Z,88001.19
2019-03-24T07:15:52.902Z,88005.13
2019-03-24T07:18:19.690Z,87993.73
2019-03-24T07:20:46.412Z,87998.23
2019-03-24T07:23:13.136Z,88004.45
2019-03-24T07:25:40.053Z,87996.87
2019-03-24T07:28:06.775Z,87984.75
2019-03-24T07:30:33.515Z,87984.58
2019-03-24T07:33:20.034Z,87981.45
2019-03-24T07:35:46.768Z,87979.66
2019-03-24T07:38:13.496Z,87973.59
2019-03-24T07:40:40.283Z,87972.53
2019-03-24T07:43:07.016Z,87968.50
2019-03-24T07:45:33.832Z,87969.61
2019-03-24T07:48:00.573Z,87966.87
2019-03-24T07:50:27.303Z,87966.80
2019-03-24T07:52:54.078Z,87965.37
2019-03-24T07:55:20.818Z,87963.64
2019-03-24T07:57:47.572Z,87960.06
2019-03-24T08:00:19.736Z,87960.26
2019-03-24T08:02:51.204Z,87953.28
2019-03-24T08:05:18.129Z,87953.14
2019-03-24T08:07:44.850Z,87952.24
2019-03-24T08:10:11.642Z,87943.59
2019-03-24T08:12:38.385Z,87945.34
2019-03-24T08:15:05.411Z,87941.46
2019-03-24T08:17:32.188Z,87939.27
2019-03-24T08:19:58.939Z,87940.20
2019-03-24T08:22:25.670Z,87934.87
2019-03-24T08:24:52.934Z,87933.40
2019-03-24T08:27:19.709Z,87924.94
2019-03-24T08:29:46.447Z,87914.82
2019-03-24T08:32:13.430Z,87917.98
2019-03-24T08:34:40.167Z,87915.06
2019-03-24T08:37:06.941Z,87912.48
2019-03-24T08:39:33.674Z,87913.59
2019-03-24T08:42:00.399Z,87909.47
2019-03-24T08:44:27.224Z,87910.11
2019-03-24T08:46:53.938Z,87910.55
2019-03-24T08:49:20.657Z,87900.23
2019-03-24T08:51:47.421Z,87900.93
2019-03-24T08:54:14.140Z,87892.39
2019-03-24T08:56:40.939Z,87894.27
2019-03-24T08:59:07.684Z,87886.93
2019-03-24T09:01:34.435Z,87881.95
2019-03-24T09:04:01.211Z,87885.62
2019-03-24T09:06:27.951Z,87882.59
2019-03-24T09:08:54.727Z,87870.19
2019-03-24T09:11:30.886Z,87870.55
2019-03-24T09:13:50.032Z,87870.73
2019-03-24T09:16:16.963Z,87859.73
2019-03-24T09:18:52.048Z,87852.92
2019-03-24T09:21:12.342Z,87849.22
2019-03-24T09:23:39.073Z,87846.43
2019-03-24T09:26:05.804Z,87852.93
2019-03-24T09:28:32.665Z,87840.16
2019-03-24T09:30:59.389Z,87836.80
2019-03-24T09:33:26.118Z,87832.31
2019-03-24T09:35:52.936Z,87829.98
2019-03-24T09:38:19.650Z,87825.77
2019-03-24T09:40:46.361Z,87819.24
2019-03-24T09:43:13.146Z,87820.01
2019-03-24T09:45:39.875Z,87818.97
2019-03-24T09:48:06.701Z,87818.52
2019-03-24T09:50:33.532Z,87813.59
2019-03-24T09:53:00.360Z,87809.95
2019-03-24T09:55:27.178Z,87808.78
2019-03-24T09:57:53.888Z,87803.66
2019-03-24T10:00:20.653Z,87801.35
2019-03-24T10:02:47.467Z,87801.09
2019-03-24T10:05:15.385Z,87797.14
2019-03-24T10:07:43.084Z,87798.61
2019-03-24T10:10:10.363Z,87794.34
2019-03-24T10:12:37.100Z,87791.30
2019-03-24T10:15:06.236Z,87785.48
2019-03-24T10:17:33.026Z,87779.06
2019-03-24T10:19:59.752Z,87778.53
2019-03-24T10:22:26.551Z,87776.03
2019-03-24T10:24:53.277Z,87774.73
2019-03-24T10:27:19.997Z,87768.73
2019-03-24T10:29:46.842Z,87767.72
2019-03-24T10:32:13.568Z,87764.03
2019-03-24T10:34:40.503Z,87765.05
2019-03-24T10:37:07.298Z,87761.92
2019-03-24T10:39:34.052Z,87756.08
2019-03-24T10:42:00.775Z,87749.20
2019-03-24T10:44:27.552Z,87747.08
2019-03-24T10:46:54.287Z,87740.28
2019-03-24T10:49:25.098Z,87744.05
2019-03-24T10:51:49.611Z,87736.45
2019-03-24T10:54:16.331Z,87731.71
2019-03-24T10:56:43.126Z,87731.72
2019-03-24T10:59:09.861Z,87715.94
2019-03-24T11:01:36.649Z,87726.48
2019-03-24T11:04:03.395Z,87719.54
2019-03-24T11:06:30.114Z,87719.81
2019-03-24T11:08:56.903Z,87714.89
2019-03-24T11:11:23.636Z,87711.15
2019-03-24T11:13:50.409Z,87710.47
2019-03-24T11:16:17.142Z,87705.38
2019-03-24T11:18:43.893Z,87703.44
2019-03-24T11:21:10.697Z,87702.72
2019-03-24T11:23:37.417Z,87698.09
2019-03-24T11:26:04.159Z,87697.34
2019-03-24T11:28:30.954Z,87698.78
2019-03-24T11:30:57.721Z,87688.81
2019-03-24T11:33:24.470Z,87688.95
2019-03-24T11:35:51.245Z,87685.98
2019-03-24T11:38:17.971Z,87678.04
2019-03-24T11:40:44.765Z,87681.34
2019-03-24T11:43:11.490Z,87675.20
2019-03-24T11:45:38.229Z,87672.05
2019-03-24T11:48:05.099Z,87667.26
2019-03-24T11:50:31.843Z,87660.52
2019-03-24T11:52:58.630Z,87659.00
2019-03-24T11:55:25.369Z,87658.11
2019-03-24T11:57:52.137Z,87651.67
2019-03-24T12:00:26.981Z,87645.22
2019-03-24T12:02:53.737Z,87645.08
2019-03-24T12:05:20.468Z,87639.20
2019-03-24T12:07:47.267Z,87628.55
2019-03-24T12:10:14.423Z,87628.69
2019-03-24T12:12:41.309Z,87615.95
2019-03-24T12:15:09.398Z,87613.66
2019-03-24T12:17:55.877Z,87608.92
2019-03-24T12:20:22.683Z,87604.48
2019-03-24T12:22:49.418Z,87598.89
2019-03-24T12:25:16.165Z,87591.57
2019-03-24T12:27:42.941Z,87585.15
2019-03-24T12:30:10.778Z,87585.13
2019-03-24T12:32:37.542Z,87577.00
2019-03-24T12:35:07.055Z,87581.02
2019-03-24T12:37:33.785Z,87571.22
2019-03-24T12:40:01.179Z,87572.89
2019-03-24T12:42:27.906Z,87563.93
2019-03-24T12:44:56.006Z,87564.14
2019-03-24T12:47:22.808Z,87555.17
2019-03-24T12:49:49.555Z,87554.84
2019-03-24T12:52:16.293Z,87553.92
2019-03-24T12:54:43.137Z,87544.26
2019-03-24T12:57:10.164Z,87543.23
2019-03-24T12:59:36.898Z,87545.05
2019-03-24T13:02:03.805Z,87539.23
2019-03-24T13:04:30.553Z,87537.27
2019-03-24T13:06:57.319Z,87534.75
2019-03-24T13:09:24.052Z,87532.83
2019-03-24T13:11:50.793Z,87525.06
2019-03-24T13:14:17.633Z,87530.03
2019-03-24T13:16:44.363Z,87528.38
2019-03-24T13:19:11.131Z,87525.27
2019-03-24T13:21:37.927Z,87522.85
2019-03-24T13:24:04.658Z,87520.31
2019-03-24T13:26:31.457Z,87515.97
2019-03-24T13:28:58.164Z,87512.72
2019-03-24T13:31:24.966Z,87512.12
2019-03-24T13:33:51.762Z,87507.79
2019-03-24T13:36:18.478Z,87510.73
2019-03-24T13:38:45.193Z,87499.92
2019-03-24T13:41:11.978Z,87505.98
2019-03-24T13:43:38.716Z,87495.88
2019-03-24T13:46:05.468Z,87485.84
2019-03-24T13:48:32.246Z,87483.30
2019-03-24T13:50:59.009Z,87485.50
2019-03-24T13:53:25.809Z,87483.19
2019-03-24T13:55:52.521Z,87479.63
2019-03-24T13:58:19.286Z,87481.08
2019-03-24T14:00:46.055Z,87475.98
2019-03-24T14:03:12.787Z,87466.16
2019-03-24T14:05:39.536Z,87470.39
2019-03-24T14:08:06.838Z,87466.42
2019-03-24T14:10:33.579Z,87469.75
2019-03-24T14:13:00.312Z,87469.66
2019-03-24T14:15:27.114Z,87466.49
2019-03-24T14:17:53.836Z,87458.27
2019-03-24T14:20:20.574Z,87465.11
2019-03-24T14:22:47.360Z,87456.34
2019-03-24T14:25:14.090Z,87455.47
2019-03-24T14:27:40.854Z,87445.73
2019-03-24T14:30:09.936Z,87443.44
2019-03-24T14:32:36.682Z,87442.48
2019-03-24T14:35:07.179Z,87438.31
2019-03-24T14:37:33.947Z,87434.30
2019-03-24T14:40:00.676Z,87436.78
2019-03-24T14:42:27.489Z,87431.27
2019-03-24T14:44:54.229Z,87434.18
2019-03-24T14:47:20.965Z,87432.36
2019-03-24T14:49:47.760Z,87433.13
2019-03-24T14:52:14.527Z,87432.92
2019-03-24T14:54:41.356Z,87435.99
2019-03-24T14:57:08.087Z,87432.07
2019-03-24T14:59:34.843Z,87435.09
2019-03-24T15:02:01.608Z,87426.91
2019-03-24T15:04:28.342Z,87425.53
2019-03-24T15:06:55.056Z,87425.73
2019-03-24T15:09:21.862Z,87428.11
2019-03-24T15:11:48.755Z,87418.19
2019-03-24T15:14:15.499Z,87416.36
2019-03-24T15:16:42.280Z,87416.14
2019-03-24T15:19:09.026Z,87415.34
2019-03-24T15:21:35.793Z,87416.31
2019-03-24T15:24:02.651Z,87419.36
2019-03-24T15:26:29.401Z,87417.98
2019-03-24T15:28:56.357Z,87411.84
2019-03-24T15:31:23.117Z,87408.33
2019-03-24T15:33:53.908Z,87409.16
2019-03-24T15:36:20.770Z,87412.42
2019-03-24T15:38:47.536Z,87410.07
2019-03-24T15:41:14.313Z,87408.50
2019-03-24T15:43:41.238Z,87404.31
2019-03-24T15:46:08.014Z,87406.66
2019-03-24T15:48:34.816Z,87409.27
2019-03-24T15:51:01.795Z,87407.14
2019-03-24T15:53:28.588Z,87407.94
2019-03-24T15:55:55.353Z,87412.53
2019-03-24T15:58:22.079Z,87414.88
2019-03-24T16:00:49.647Z,87410.30
2019-03-24T16:03:16.617Z,87405.67
2019-03-24T16:05:43.335Z,87410.26
2019-03-24T16:08:10.167Z,87415.00
2019-03-24T16:10:36.985Z,87408.23
2019-03-24T16:13:03.828Z,87417.20
2019-03-24T16:15:30.556Z,87413.16
2019-03-24T16:17:57.514Z,87412.91
2019-03-24T16:20:24.305Z,87409.64
2019-03-24T16:22:51.036Z,87413.58
2019-03-24T16:25:17.789Z,87416.34
2019-03-24T16:27:44.586Z,87411.34
2019-03-24T16:30:12.065Z,87419.48
2019-03-24T16:32:38.792Z,87414.76
2019-03-24T16:35:05.883Z,87412.83
2019-03-24T16:37:32.664Z,87412.83
2019-03-24T16:39:59.404Z,87405.57
2019-03-24T16:42:26.205Z,87412.46
2019-03-24T16:44:52.939Z,87407.56
2019-03-24T16:47:19.756Z,87400.81
2019-03-24T16:49:46.534Z,87404.48
2019-03-24T16:52:13.309Z,87399.81
2019-03-24T16:54:40.035Z,87404.17
2019-03-24T16:57:06.941Z,87401.41
2019-03-24T16:59:33.649Z,87408.44
2019-03-24T17:02:00.386Z,87405.82
2019-03-24T17:04:27.151Z,87409.23
2019-03-24T17:06:53.903Z,87415.68
2019-03-24T17:09:20.708Z,87407.02
2019-03-24T17:11:47.480Z,87404.20
2019-03-24T17:14:14.212Z,87411.55
2019-03-24T17:16:41.034Z,87404.76
2019-03-24T17:19:07.770Z,87409.48
2019-03-24T17:21:34.541Z,87408.34
2019-03-24T17:24:01.286Z,87410.02
2019-03-24T17:26:28.015Z,87419.08
2019-03-24T17:28:54.805Z,87413.42
2019-03-24T17:31:21.586Z,87413.98
2019-03-24T17:33:51.557Z,87406.26
2019-03-24T17:36:18.874Z,87413.02
2019-03-24T17:38:45.610Z,87411.66
2019-03-24T17:41:12.353Z,87412.44
2019-03-24T17:43:39.192Z,87413.39
2019-03-24T17:46:05.922Z,87411.73
2019-03-24T17:48:32.629Z,87413.80
2019-03-24T17:50:59.648Z,87416.23
2019-03-24T17:53:26.784Z,87415.30
2019-03-24T17:55:53.593Z,87423.41
2019-03-24T17:58:20.420Z,87416.81
2019-03-24T18:00:47.144Z,87423.03
2019-03-24T18:03:13.895Z,87425.67
2019-03-24T18:05:59.753Z,87426.42
2019-03-24T18:08:26.526Z,87425.87
2019-03-24T18:10:53.251Z,87424.14
2019-03-24T18:13:20.024Z,87424.35
2019-03-24T18:15:46.744Z,87432.85
2019-03-24T18:18:13.641Z,87435.86
2019-03-24T18:20:40.368Z,87432.46
2019-03-24T18:23:07.154Z,87437.33
2019-03-24T18:25:33.936Z,87435.41
2019-03-24T18:28:00.674Z,87436.15
2019-03-24T18:30:27.517Z,87438.95
2019-03-24T18:32:54.301Z,87441.80
2019-03-24T18:35:21.149Z,87440.63
2019-03-24T18:37:47.993Z,87444.00
2019-03-24T18:40:16.970Z,87447.58
2019-03-24T18:42:43.748Z,87443.03
2019-03-24T18:45:11.911Z,87446.99
2019-03-24T18:47:39.425Z,87452.62
2019-03-24T18:50:08.094Z,87453.70
2019-03-24T18:52:34.923Z,87458.58
2019-03-24T18:55:02.682Z,87449.31
2019-03-24T18:57:29.459Z,87457.20
2019-03-24T18:59:56.298Z,87460.21
2019-03-24T19:02:23.001Z,87460.59
2019-03-24T19:04:49.792Z,87463.19
2019-03-24T19:07:16.692Z,87462.59
2019-03-24T19:09:43.482Z,87464.80
2019-03-24T19:12:10.199Z,87463.64
2019-03-24T19:14:37.027Z,87465.47
2019-03-24T19:17:03.784Z,87469.20
2019-03-24T19:19:30.590Z,87467.28
2019-03-24T19:21:57.336Z,87466.67
2019-03-24T19:24:24.061Z,87473.59
2019-03-24T19:26:50.841Z,87471.13
2019-03-24T19:29:17.581Z,87482.37
2019-03-24T19:31:44.338Z,87484.17
2019-03-24T19:34:11.117Z,87491.20
2019-03-24T19:36:37.955Z,87487.71
2019-03-24T19:39:07.314Z,87488.80
2019-03-24T19:41:34.049Z,87491.55
2019-03-24T19:44:00.784Z,87486.65
2019-03-24T19:46:27.577Z,87484.50
2019-03-24T19:48:54.331Z,87485.66
2019-03-24T19:51:21.085Z,87488.11
2019-03-24T19:53:47.882Z,87484.83
2019-03-24T19:56:14.665Z,87482.72
2019-03-24T19:58:41.399Z,87476.30
2019-03-24T20:01:08.163Z,87477.59
2019-03-24T20:03:34.908Z,87480.23
2019-03-24T20:06:01.759Z,87469.86
2019-03-24T20:08:28.520Z,87470.97
2019-03-24T20:10:55.251Z,87470.00
2019-03-24T20:13:22.023Z,87477.66
2019-03-24T20:15:48.745Z,87482.00
2019-03-24T20:18:15.515Z,87487.05
2019-03-24T20:20:42.270Z,87483.84
2019-03-24T20:23:09.033Z,87483.16
2019-03-24T20:25:35.823Z,87489.86
2019-03-24T20:28:04.072Z,87488.95
2019-03-24T20:30:30.807Z,87487.98
2019-03-24T20:32:57.593Z,87483.55
2019-03-24T20:35:24.322Z,87487.16
2019-03-24T20:37:51.099Z,87491.13
2019-03-24T20:40:31.194Z,87487.42
2019-03-24T20:42:57.955Z,87488.64
2019-03-24T20:45:24.731Z,87497.55
2019-03-24T20:47:51.547Z,87492.95
2019-03-24T20:50:18.267Z,87490.38
2019-03-24T20:52:44.995Z,87483.67
2019-03-24T20:55:11.874Z,87480.39
2019-03-24T20:57:38.622Z,87482.15
2019-03-24T21:00:06.514Z,87487.28
2019-03-24T21:02:33.256Z,87487.36
2019-03-24T21:04:59.990Z,87486.95
2019-03-24T21:07:26.782Z,87483.45
2019-03-24T21:09:53.528Z,87487.42
2019-03-24T21:12:20.254Z,87478.89
2019-03-24T21:14:47.044Z,87478.74
2019-03-24T21:17:13.774Z,87481.25
2019-03-24T21:19:40.562Z,87477.56
2019-03-24T21:22:07.298Z,87476.34
2019-03-24T21:24:34.014Z,87478.63
2019-03-24T21:27:00.792Z,87478.13
2019-03-24T21:29:27.540Z,87476.48
2019-03-24T21:31:55.268Z,87478.25
2019-03-24T21:34:22.071Z,87479.09
2019-03-24T21:36:48.817Z,87479.23
2019-03-24T21:39:15.558Z,87482.50
2019-03-24T21:41:42.395Z,87480.75
2019-03-24T21:44:09.131Z,87486.30
2019-03-24T21:46:35.928Z,87488.80
2019-03-24T21:49:02.662Z,87484.48
2019-03-24T21:51:29.391Z,87483.09
2019-03-24T21:53:56.169Z,87480.15
2019-03-24T21:56:22.912Z,87475.55
2019-03-24T21:58:49.698Z,87473.42
2019-03-24T22:01:16.424Z,87484.45
2019-03-24T22:03:43.174Z,87480.16
2019-03-24T22:06:09.966Z,87480.46
2019-03-24T22:08:36.687Z,87472.88
2019-03-24T22:11:03.423Z,87468.31
2019-03-24T22:13:30.198Z,87466.81
2019-03-24T22:15:56.913Z,87469.22
2019-03-24T22:18:23.728Z,87470.61
2019-03-24T22:20:50.467Z,87469.63
2019-03-24T22:23:17.188Z,87470.87
2019-03-24T22:25:43.973Z,87469.70
2019-03-24T22:28:10.720Z,87463.51
2019-03-24T22:30:37.521Z,87449.92
2019-03-24T22:33:04.260Z,87447.52
2019-03-24T22:35:31.010Z,87444.49
2019-03-24T22:37:57.799Z,87438.44
2019-03-24T22:40:24.529Z,87434.34
2019-03-24T22:42:51.309Z,87435.92
2019-03-24T22:45:18.101Z,87430.91
2019-03-24T22:47:44.852Z,87436.83
2019-03-24T22:50:12.398Z,87433.94
2019-03-24T22:52:39.217Z,87436.36
2019-03-24T22:55:07.363Z,87432.57
2019-03-24T22:57:34.095Z,87429.27
2019-03-24T23:00:00.878Z,87436.30
2019-03-24T23:02:27.608Z,87440.47
2019-03-24T23:04:54.361Z,87432.84
2019-03-24T23:07:21.155Z,87430.48
2019-03-24T23:09:47.881Z,87429.98
2019-03-24T23:12:14.629Z,87431.69
2019-03-24T23:14:41.423Z,87430.70
2019-03-24T23:17:08.167Z,87427.41
2019-03-24T23:19:34.909Z,87427.77
2019-03-24T23:22:01.693Z,87423.20
2019-03-24T23:24:28.437Z,87426.91
2019-03-24T23:26:55.175Z,87434.21
2019-03-24T23:29:21.974Z,87429.52
2019-03-24T23:31:48.701Z,87428.63
2019-03-24T23:34:15.446Z,87429.62
2019-03-24T23:36:42.245Z,87422.45
2019-03-24T23:39:08.964Z,87419.97
2019-03-24T23:41:35.734Z,87419.80
2019-03-24T23:44:03.950Z,87421.81
2019-03-24T23:46:30.968Z,87418.56
2019-03-24T23:48:57.692Z,87417.50
2019-03-24T23:51:24.506Z,87428.66
2019-03-24T23:53:51.230Z,87422.16
2019-03-24T23:56:17.943Z,87419.30
2019-03-24T23:58:44.740Z,87411.34
